Time;durP1;ratioP1;P1;durP2;ratioP2;P2;SDS_P1;SDS_P2;PMS_P1;PMS_P2;Temp;Humidity;BMP_temperature;BMP_pressure;BME280_temperature;BME280_humidity;BME280_pressure;Samples;Min_cycle;Max_cycle;Signal;HPM_P1;HPM_P2
2022/08/20 00:00:35;;;;;;;6.53;4.05;;;18.30;99.90;;;;;;5032117;28;20124;-75
2022/08/20 00:03:13;;;;;;;5.72;3.80;;;18.30;99.90;;;;;;5032230;28;20503;-76
2022/08/20 00:05:42;;;;;;;5.30;3.80;;;18.30;99.90;;;;;;5031906;28;20042;-75
2022/08/20 00:08:09;;;;;;;5.30;3.80;;;18.30;99.90;;;;;;5031691;28;20556;-75
2022/08/20 00:10:37;;;;;;;5.43;3.55;;;18.20;99.90;;;;;;5046217;28;20170;-76
2022/08/20 00:13:06;;;;;;;5.47;3.80;;;18.20;99.90;;;;;;5051534;28;20055;-76
2022/08/20 00:15:34;;;;;;;6.55;3.50;;;18.20;99.90;;;;;;5049932;28;20476;-76
2022/08/20 00:18:00;;;;;;;5.10;3.42;;;18.20;99.90;;;;;;5050435;28;20033;-76
2022/08/20 00:20:29;;;;;;;6.22;4.38;;;18.20;99.90;;;;;;5040204;28;20064;-75
2022/08/20 00:22:56;;;;;;;7.05;4.25;;;18.20;99.90;;;;;;5031958;28;20026;-75
2022/08/20 00:25:23;;;;;;;7.07;3.85;;;18.20;99.90;;;;;;5031450;28;20037;-75
2022/08/20 00:27:49;;;;;;;;;;;18.20;99.90;;;;;;5031726;28;20033;-75
2022/08/20 00:30:15;;;;;;;5.53;3.60;;;18.30;99.90;;;;;;5051037;28;19935;-76
2022/08/20 00:32:46;;;;;;;5.95;3.88;;;18.20;99.90;;;;;;5051348;28;20044;-75
2022/08/20 00:35:15;;;;;;;7.28;3.72;;;18.10;99.90;;;;;;5051283;28;20036;-75
2022/08/20 00:37:41;;;;;;;7.68;3.97;;;18.20;99.90;;;;;;5051200;28;20056;-75
2022/08/20 00:40:08;;;;;;;7.83;4.00;;;18.10;99.90;;;;;;5049658;28;20441;-75
2022/08/20 00:42:42;;;;;;;7.18;4.07;;;18.10;99.90;;;;;;5050954;28;20074;-75
2022/08/20 00:45:08;;;;;;;6.07;4.38;;;18.10;99.90;;;;;;5048830;28;20143;-75
2022/08/20 00:47:35;;;;;;;6.45;4.25;;;18.10;99.90;;;;;;5049163;28;20029;-75
2022/08/20 00:50:00;;;;;;;6.88;4.22;;;18.10;99.90;;;;;;5037654;28;20041;-75
2022/08/20 00:52:26;;;;;;;7.00;4.77;;;18.10;99.90;;;;;;5030662;28;20099;-75
2022/08/20 00:54:58;;;;;;;6.10;4.63;;;18.00;99.90;;;;;;5030518;28;20034;-75
2022/08/20 00:57:50;;;;;;;6.78;4.57;;;18.00;99.90;;;;;;5031330;28;20068;-74
2022/08/20 01:00:38;;;;;;;6.55;4.00;;;18.00;99.90;;;;;;5029253;28;20033;-75
2022/08/20 01:03:08;;;;;;;9.52;4.05;;;18.00;99.90;;;;;;5030487;28;20029;-75
2022/08/20 01:05:35;;;;;;;6.07;4.20;;;17.90;99.90;;;;;;5030509;28;20072;-75
2022/08/20 01:08:00;;;;;;;;;;;17.90;99.90;;;;;;5030851;28;20065;-75
2022/08/20 01:10:33;;;;;;;6.60;3.90;;;17.80;99.90;;;;;;5043447;28;19963;-75
2022/08/20 01:12:59;;;;;;;5.93;4.13;;;17.80;99.90;;;;;;5043337;28;20029;-75
2022/08/20 01:15:28;;;;;;;6.43;4.53;;;17.80;99.90;;;;;;5030341;28;20047;-75
2022/08/20 01:17:57;;;;;;;5.40;3.92;;;17.80;99.90;;;;;;5030383;28;20172;-75
2022/08/20 01:20:51;;;;;;;5.68;4.35;;;17.70;99.90;;;;;;5028895;28;20121;-74
2022/08/20 01:23:40;;;;;;;5.55;4.28;;;17.70;99.90;;;;;;5047611;28;20540;-74
2022/08/20 01:26:32;;;;;;;6.95;4.32;;;17.70;99.90;;;;;;5050297;28;20037;-75
2022/08/20 01:29:13;;;;;;;5.85;4.45;;;17.60;99.90;;;;;;5037984;28;20429;-74
2022/08/20 01:31:40;;;;;;;5.63;3.95;;;17.60;99.90;;;;;;5033422;28;20091;-75
2022/08/20 01:34:10;;;;;;;6.15;4.32;;;17.60;99.90;;;;;;5034845;28;20120;-74
2022/08/20 01:36:43;;;;;;;5.72;4.22;;;17.60;99.90;;;;;;5045199;28;20029;-75
2022/08/20 01:39:11;;;;;;;7.85;4.80;;;17.60;99.90;;;;;;5049875;28;20360;-75
2022/08/20 01:41:59;;;;;;;6.53;4.07;;;17.60;99.90;;;;;;5048877;28;20329;-75
2022/08/20 01:44:26;;;;;;;6.03;4.07;;;17.60;99.90;;;;;;5036726;28;20040;-74
2022/08/20 01:46:56;;;;;;;6.00;4.45;;;17.60;99.90;;;;;;5030223;28;20050;-75
2022/08/20 01:49:31;;;;;;;5.82;3.80;;;17.60;99.90;;;;;;5030172;28;20033;-74
2022/08/20 01:52:00;;;;;;;7.82;4.80;;;17.60;99.90;;;;;;5033022;28;20030;-75
2022/08/20 01:54:27;;;;;;;7.53;4.60;;;17.50;99.90;;;;;;5048643;28;20052;-76
2022/08/20 01:57:09;;;;;;;6.93;4.85;;;17.60;99.90;;;;;;5050430;28;20354;-75
2022/08/20 01:59:34;;;;;;;7.50;4.97;;;17.60;99.90;;;;;;5037067;28;20112;-75
2022/08/20 02:02:01;;;;;;;8.60;4.73;;;17.60;99.90;;;;;;5034104;28;20101;-75
2022/08/20 02:04:26;;;;;;;;;;;17.60;99.90;;;;;;5034242;28;20025;-75
2022/08/20 02:06:56;;;;;;;7.13;4.68;;;17.60;99.90;;;;;;5032504;28;20012;-74
2022/08/20 02:09:22;;;;;;;7.88;5.05;;;17.60;99.90;;;;;;5053555;28;20036;-74
2022/08/20 02:11:48;;;;;;;6.47;4.10;;;17.60;99.90;;;;;;5053991;28;20353;-75
2022/08/20 02:14:14;;;;;;;5.90;4.03;;;17.60;99.90;;;;;;5045598;28;20472;-75
2022/08/20 02:16:42;;;;;;;;;;;17.60;99.90;;;;;;5034401;28;20065;-75
2022/08/20 02:19:20;;;;;;;6.85;3.97;;;17.60;99.90;;;;;;5033682;28;19905;-75
2022/08/20 02:21:52;;;;;;;6.82;4.13;;;17.60;99.90;;;;;;5034182;28;20039;-74
2022/08/20 02:24:18;;;;;;;7.10;5.18;;;17.70;99.90;;;;;;5051726;28;20095;-75
2022/08/20 02:26:44;;;;;;;7.50;4.60;;;17.50;99.90;;;;;;5054015;28;20037;-74
2022/08/20 02:29:12;;;;;;;6.00;4.07;;;17.60;99.90;;;;;;5047979;28;20495;-74
2022/08/20 02:31:39;;;;;;;6.25;4.25;;;17.60;99.90;;;;;;5034009;28;20368;-74
2022/08/20 02:34:08;;;;;;;6.03;4.35;;;17.60;99.90;;;;;;5033346;28;20018;-75
2022/08/20 02:36:36;;;;;;;6.60;4.53;;;17.70;99.90;;;;;;5032043;28;20064;-75
2022/08/20 02:39:04;;;;;;;6.47;4.43;;;17.60;99.90;;;;;;5045816;28;20020;-75
2022/08/20 02:41:30;;;;;;;7.22;4.45;;;17.60;99.90;;;;;;5053609;28;20462;-75
2022/08/20 02:43:55;;;;;;;8.33;4.17;;;17.60;99.90;;;;;;5051871;28;20029;-76
2022/08/20 02:46:21;;;;;;;5.60;4.03;;;17.60;99.90;;;;;;5033657;28;20465;-75
2022/08/20 02:48:47;;;;;;;6.33;4.07;;;17.60;99.90;;;;;;5033398;28;20438;-75
2022/08/20 02:51:12;;;;;;;7.13;4.50;;;17.60;99.90;;;;;;5033058;28;20040;-75
2022/08/20 02:53:40;;;;;;;6.07;4.40;;;17.60;99.90;;;;;;5033154;28;20394;-75
2022/08/20 02:56:07;;;;;;;6.00;4.47;;;17.50;99.90;;;;;;5033517;28;20029;-75
2022/08/20 02:58:34;;;;;;;7.28;3.90;;;17.50;99.90;;;;;;5033322;28;20017;-75
2022/08/20 03:01:01;;;;;;;7.35;4.70;;;17.60;99.90;;;;;;5032737;28;20387;-75
2022/08/20 03:03:26;;;;;;;6.85;4.68;;;17.60;99.90;;;;;;5033368;28;20025;-75
2022/08/20 03:05:57;;;;;;;7.37;4.97;;;17.60;99.90;;;;;;5031638;28;20385;-75
2022/08/20 03:08:23;;;;;;;7.00;4.60;;;17.60;99.90;;;;;;5037041;28;20017;-76
2022/08/20 03:10:50;;;;;;;6.70;4.53;;;17.50;99.90;;;;;;5052698;28;20464;-74
2022/08/20 03:13:17;;;;;;;6.80;4.95;;;17.50;99.90;;;;;;5052627;28;20033;-76
2022/08/20 03:15:44;;;;;;;;;;;17.40;99.90;;;;;;5051013;28;20044;-75
2022/08/20 03:18:10;;;;;;;7.35;4.60;;;17.50;99.90;;;;;;5050891;28;19908;-76
2022/08/20 03:20:36;;;;;;;6.22;4.55;;;17.50;99.90;;;;;;5052670;28;20036;-75
2022/08/20 03:23:03;;;;;;;7.30;5.00;;;17.50;99.90;;;;;;5052295;28;20025;-75
2022/08/20 03:25:29;;;;;;;7.85;4.97;;;17.50;99.90;;;;;;5051892;28;20052;-75
2022/08/20 03:27:55;;;;;;;7.43;5.03;;;17.50;99.90;;;;;;5052387;28;20025;-76
2022/08/20 03:30:22;;;;;;;8.23;4.83;;;17.50;99.90;;;;;;5045525;28;20562;-74
2022/08/20 03:32:48;;;;;;;7.20;5.03;;;17.50;99.90;;;;;;5032424;28;20034;-74
2022/08/20 03:35:17;;;;;;;8.77;5.10;;;17.40;99.90;;;;;;5032695;28;20026;-74
2022/08/20 03:37:44;;;;;;;7.35;5.18;;;17.50;99.90;;;;;;5032386;28;20468;-74
2022/08/20 03:40:15;;;;;;;9.20;5.57;;;17.60;99.90;;;;;;5045577;28;20072;-75
2022/08/20 03:42:41;;;;;;;8.25;5.18;;;17.60;99.90;;;;;;5052194;28;20048;-75
2022/08/20 03:45:09;;;;;;;7.35;5.25;;;17.50;99.90;;;;;;5049929;28;20455;-75
2022/08/20 03:47:34;;;;;;;9.48;6.57;;;17.50;99.90;;;;;;5048673;28;20154;-75
2022/08/20 03:50:01;;;;;;;10.27;6.90;;;17.50;99.90;;;;;;5050568;28;20123;-75
2022/08/20 03:52:28;;;;;;;10.38;6.00;;;17.50;99.90;;;;;;5051807;28;20029;-75
2022/08/20 03:54:54;;;;;;;7.82;5.63;;;17.50;99.90;;;;;;5041023;28;20496;-75
2022/08/20 03:57:20;;;;;;;8.30;5.63;;;17.50;99.90;;;;;;5030832;28;20037;-75
2022/08/20 03:59:46;;;;;;;8.30;5.80;;;17.50;99.90;;;;;;5032030;28;20034;-75
2022/08/20 04:02:11;;;;;;;8.50;6.10;;;17.40;99.90;;;;;;5048858;28;20105;-75
2022/08/20 04:04:39;;;;;;;7.53;5.80;;;17.50;99.90;;;;;;5051827;28;20056;-75
2022/08/20 04:07:24;;;;;;;7.65;5.70;;;17.40;99.90;;;;;;5050320;28;20040;-75
2022/08/20 04:09:54;;;;;;;8.88;5.95;;;17.40;99.90;;;;;;5043263;28;20457;-75
2022/08/20 04:12:21;;;;;;;8.02;5.72;;;17.40;99.90;;;;;;5031607;28;20065;-75
2022/08/20 04:14:47;;;;;;;7.07;4.88;;;17.40;99.90;;;;;;5032474;28;20457;-76
2022/08/20 04:17:13;;;;;;;7.43;5.03;;;17.50;99.90;;;;;;5045402;28;20036;-76
2022/08/20 04:19:39;;;;;;;6.97;4.87;;;17.50;99.90;;;;;;5050113;28;20032;-76
2022/08/20 04:22:06;;;;;;;6.70;4.73;;;17.60;99.90;;;;;;5051255;28;20025;-75
2022/08/20 04:24:33;;;;;;;9.00;5.03;;;17.60;99.90;;;;;;5047763;28;20727;-75
2022/08/20 04:27:01;;;;;;;6.88;5.35;;;17.70;99.90;;;;;;5029907;28;20048;-75
2022/08/20 04:29:27;;;;;;;8.50;5.28;;;17.80;99.90;;;;;;5030066;28;20436;-74
2022/08/20 04:31:54;;;;;;;8.48;5.40;;;17.80;99.90;;;;;;5040611;28;20461;-74
2022/08/20 04:34:20;;;;;;;;;;;17.80;99.90;;;;;;5049817;28;20033;-75
2022/08/20 04:36:47;;;;;;;7.82;4.65;;;17.80;99.90;;;;;;5051634;28;19913;-75
2022/08/20 04:39:16;;;;;;;8.57;5.45;;;17.80;99.90;;;;;;5050862;28;20502;-76
2022/08/20 04:41:42;;;;;;;7.00;5.45;;;17.70;99.90;;;;;;5031457;28;20046;-75
2022/08/20 04:44:09;;;;;;;9.00;5.27;;;17.80;99.90;;;;;;5029401;28;20025;-75
2022/08/20 04:46:36;;;;;;;9.55;6.05;;;17.70;99.90;;;;;;5037191;28;20029;-75
2022/08/20 04:49:03;;;;;;;8.60;5.30;;;17.80;99.90;;;;;;5050404;28;20033;-75
2022/08/20 04:51:29;;;;;;;8.50;4.82;;;17.70;99.90;;;;;;5050916;28;20040;-74
2022/08/20 04:53:56;;;;;;;7.32;5.05;;;17.80;99.90;;;;;;5050436;28;20029;-75
2022/08/20 04:56:36;;;;;;;6.68;5.22;;;17.80;99.90;;;;;;5036003;28;20041;-75
2022/08/20 04:59:02;;;;;;;6.82;5.00;;;17.90;99.90;;;;;;5029220;28;20107;-74
2022/08/20 05:01:28;;;;;;;7.73;5.83;;;17.90;99.90;;;;;;5033535;28;20112;-75
2022/08/20 05:03:55;;;;;;;7.88;5.28;;;18.00;99.90;;;;;;5050312;28;20085;-74
2022/08/20 05:06:24;;;;;;;9.55;5.93;;;18.10;99.90;;;;;;5050749;28;20094;-75
2022/08/20 05:08:50;;;;;;;6.90;4.82;;;18.10;99.90;;;;;;5050264;28;20029;-75
2022/08/20 05:11:16;;;;;;;8.63;5.75;;;18.10;99.90;;;;;;5038583;28;20359;-75
2022/08/20 05:13:42;;;;;;;8.27;5.97;;;18.10;99.90;;;;;;5028885;28;20025;-76
2022/08/20 05:16:08;;;;;;;7.90;5.20;;;18.20;99.90;;;;;;5030514;28;20538;-74
2022/08/20 05:18:34;;;;;;;7.55;4.75;;;18.20;99.90;;;;;;5030990;28;20026;-75
2022/08/20 05:21:06;;;;;;;7.80;5.07;;;18.20;99.90;;;;;;5030465;28;20052;-75
2022/08/20 05:23:35;;;;;;;8.27;5.00;;;18.30;99.90;;;;;;5029052;28;20078;-75
2022/08/20 05:26:04;;;;;;;7.80;4.70;;;18.30;99.90;;;;;;5036572;28;20040;-76
2022/08/20 05:28:31;;;;;;;8.05;5.28;;;18.30;99.90;;;;;;5049973;28;20423;-75
2022/08/20 05:30:59;;;;;;;5.43;4.15;;;18.20;99.90;;;;;;5049844;28;20388;-75
2022/08/20 05:33:25;;;;;;;6.68;4.90;;;18.40;99.90;;;;;;5034375;28;20060;-75
2022/08/20 05:35:52;;;;;;;7.32;5.15;;;18.50;99.90;;;;;;5030963;28;20057;-75
2022/08/20 05:38:23;;;;;;;7.05;4.70;;;18.50;99.90;;;;;;5034478;28;20025;-74
2022/08/20 05:40:49;;;;;;;7.32;4.72;;;18.60;99.90;;;;;;5038201;28;20132;-75
2022/08/20 05:43:14;;;;;;;6.47;4.85;;;18.60;99.90;;;;;;5054202;28;20029;-74
2022/08/20 05:45:42;;;;;;;7.40;5.20;;;18.60;99.90;;;;;;5054189;28;20040;-76
2022/08/20 05:48:10;;;;;;;7.90;5.88;;;18.70;99.90;;;;;;5051788;28;20107;-75
2022/08/20 05:50:37;;;;;;;6.10;4.85;;;18.70;99.90;;;;;;5052337;28;20040;-75
2022/08/20 05:53:03;;;;;;;6.13;3.97;;;18.70;99.90;;;;;;5053885;28;20487;-75
2022/08/20 05:55:29;;;;;;;7.65;4.32;;;18.70;99.90;;;;;;5053923;28;20119;-75
2022/08/20 05:58:00;;;;;;;6.83;4.40;;;18.80;99.90;;;;;;5032856;28;20121;-75
2022/08/20 06:00:28;;;;;;;6.50;4.40;;;18.90;99.90;;;;;;5033642;28;20036;-75
2022/08/20 06:05:38;;;;;;;7.07;4.47;;;19.20;99.90;;;;;;5054115;28;20424;-75
2022/08/20 06:08:08;;;;;;;6.17;4.57;;;19.30;99.90;;;;;;5053783;28;20056;-75
2022/08/20 06:10:34;;;;;;;8.18;4.65;;;19.30;99.90;;;;;;5054054;28;20048;-75
2022/08/20 06:13:01;;;;;;;7.82;4.80;;;19.40;99.90;;;;;;5035329;28;20079;-76
2022/08/20 06:15:28;;;;;;;8.13;5.07;;;19.40;99.90;;;;;;5033643;28;20044;-75
2022/08/20 06:17:54;;;;;;;7.95;5.22;;;19.40;99.90;;;;;;5033246;28;20029;-74
2022/08/20 06:20:19;;;;;;;7.10;3.47;;;19.50;99.90;;;;;;5034818;28;20083;-75
2022/08/20 06:22:45;;;;;;;5.57;3.87;;;19.60;99.90;;;;;;5032372;28;20032;-75
2022/08/20 06:25:11;;;;;;;6.07;4.37;;;19.70;99.90;;;;;;5033596;28;20426;-74
2022/08/20 06:27:38;;;;;;;7.20;3.43;;;19.70;99.90;;;;;;5046117;28;20044;-75
2022/08/20 06:30:05;;;;;;;7.43;4.00;;;19.70;99.90;;;;;;5052073;28;20033;-75
2022/08/20 06:32:32;;;;;;;6.30;3.75;;;19.90;99.90;;;;;;5052800;28;20461;-74
2022/08/20 06:35:00;;;;;;;6.45;3.72;;;20.10;99.90;;;;;;5032019;28;20116;-74
2022/08/20 06:37:28;;;;;;;5.95;3.97;;;20.40;99.90;;;;;;5033402;28;20030;-75
2022/08/20 06:39:53;;;;;;;6.28;3.33;;;20.50;99.90;;;;;;5033078;28;20037;-74
2022/08/20 06:42:20;;;;;;;4.80;3.58;;;20.70;99.90;;;;;;5033050;28;20033;-76
2022/08/20 06:44:48;;;;;;;22.92;5.95;;;20.80;99.90;;;;;;5047482;28;20060;-75
2022/08/20 06:47:16;;;;;;;4.40;3.50;;;20.90;99.90;;;;;;5052790;28;20082;-75
2022/08/20 06:49:41;;;;;;;5.40;3.75;;;21.00;99.90;;;;;;5036769;28;20481;-75
2022/08/20 06:52:07;;;;;;;5.60;3.57;;;20.90;99.90;;;;;;5032959;28;20101;-74
2022/08/20 06:54:33;;;;;;;6.30;4.27;;;20.80;99.90;;;;;;5033597;28;20032;-74
2022/08/20 06:57:00;;;;;;;6.23;3.30;;;20.70;99.90;;;;;;5042383;28;20048;-74
2022/08/20 06:59:25;;;;;;;5.53;3.35;;;20.60;99.90;;;;;;5052808;28;20032;-74
2022/08/20 07:01:55;;;;;;;4.90;3.40;;;20.60;99.90;;;;;;5052320;28;20455;-75
2022/08/20 07:04:22;;;;;;;4.88;3.17;;;20.60;99.90;;;;;;5033740;28;20036;-76
2022/08/20 07:06:49;;;;;;;4.63;3.35;;;20.60;99.90;;;;;;5033112;28;20021;-75
2022/08/20 07:09:14;;;;;;;5.72;3.38;;;20.60;99.90;;;;;;5032883;28;20547;-75
2022/08/20 07:11:41;;;;;;;4.43;3.03;;;20.60;99.90;;;;;;5031335;28;20045;-75
2022/08/20 07:14:06;;;;;;;5.47;2.63;;;20.50;99.90;;;;;;5043913;28;20037;-75
2022/08/20 07:16:32;;;;;;;3.93;2.40;;;20.70;99.90;;;;;;5052765;28;20117;-75
2022/08/20 07:18:57;;;;;;;4.13;2.60;;;20.80;99.90;;;;;;5050310;28;20473;-75
2022/08/20 07:21:24;;;;;;;4.63;2.40;;;21.00;99.90;;;;;;5052755;28;20079;-75
2022/08/20 07:23:50;;;;;;;9.60;2.83;;;21.10;99.90;;;;;;5043626;28;20037;-75
2022/08/20 07:26:16;;;;;;;4.30;2.23;;;21.20;99.90;;;;;;5031037;28;20048;-75
2022/08/20 07:28:41;;;;;;;3.63;2.50;;;21.20;99.90;;;;;;5032261;28;20440;-75
2022/08/20 07:33:51;;;;;;;3.72;2.42;;;21.10;99.90;;;;;;5050739;28;20119;-75
2022/08/20 07:36:17;;;;;;;3.60;2.20;;;21.10;99.90;;;;;;5051349;28;20132;-76
2022/08/20 07:38:45;;;;;;;5.57;2.47;;;21.20;99.90;;;;;;5050864;28;20029;-74
2022/08/20 07:41:12;;;;;;;4.10;2.45;;;21.20;99.90;;;;;;5050426;28;20056;-75
2022/08/20 07:43:38;;;;;;;4.25;2.78;;;21.20;99.90;;;;;;5050846;28;20379;-75
2022/08/20 07:46:08;;;;;;;5.30;2.92;;;21.30;99.90;;;;;;5050554;28;20090;-75
2022/08/20 07:48:35;;;;;;;3.88;2.67;;;21.30;99.90;;;;;;5037207;28;20029;-76
2022/08/20 07:51:03;;;;;;;3.92;2.80;;;21.30;99.90;;;;;;5032143;28;20030;-75
2022/08/20 07:53:29;;;;;;;4.10;2.80;;;21.40;99.90;;;;;;5030439;28;20585;-75
2022/08/20 07:55:56;;;;;;;6.03;3.42;;;21.40;99.90;;;;;;5039326;28;20044;-75
2022/08/20 07:58:22;;;;;;;5.45;2.80;;;21.30;99.90;;;;;;5050689;28;20380;-75
2022/08/20 08:00:49;;;;;;;6.00;2.60;;;21.30;99.90;;;;;;5051638;28;20122;-75
2022/08/20 08:03:14;;;;;;;4.82;2.80;;;21.30;99.90;;;;;;5041570;28;20032;-75
2022/08/20 08:05:43;;;;;;;4.67;2.90;;;21.40;99.90;;;;;;5031684;28;20037;-75
2022/08/20 08:08:16;;;;;;;5.05;2.75;;;21.40;99.90;;;;;;5031486;28;20251;-74
2022/08/20 08:10:44;;;;;;;3.72;2.50;;;21.50;99.90;;;;;;5031341;28;20053;-75
2022/08/20 08:13:13;;;;;;;3.70;2.53;;;21.50;99.90;;;;;;5036348;28;20044;-75
2022/08/20 08:15:42;;;;;;;3.95;2.70;;;21.50;99.90;;;;;;5033598;28;20021;-75
2022/08/20 08:18:14;;;;;;;3.33;2.50;;;21.50;99.90;;;;;;5037158;28;20061;-75
2022/08/20 08:20:43;;;;;;;4.03;2.72;;;21.60;99.90;;;;;;5051527;28;20032;-76
2022/08/20 08:23:13;;;;;;;3.65;2.53;;;21.60;99.90;;;;;;5047857;28;20021;-75
2022/08/20 08:25:44;;;;;;;5.63;3.22;;;21.70;99.90;;;;;;5031472;28;20041;-75
2022/08/20 08:28:13;;;;;;;6.28;3.85;;;21.90;99.90;;;;;;5031131;28;20366;-75
2022/08/20 08:30:39;;;;;;;3.50;2.63;;;22.00;99.90;;;;;;5031265;28;20030;-74
2022/08/20 08:35:50;;;;;;;3.55;2.38;;;22.10;99.90;;;;;;5050961;28;20044;-74
2022/08/20 08:38:16;;;;;;;3.27;2.30;;;22.10;99.90;;;;;;5050920;28;20025;-75
2022/08/20 08:40:43;;;;;;;3.45;2.22;;;22.10;99.90;;;;;;5049481;28;20055;-74
2022/08/20 08:43:12;;;;;;;2.97;2.00;;;22.10;99.90;;;;;;5041328;28;20030;-75
2022/08/20 08:45:44;;;;;;;4.03;2.30;;;22.10;99.90;;;;;;5030765;28;20086;-76
2022/08/20 08:48:12;;;;;;;4.65;2.42;;;22.20;99.90;;;;;;5040771;28;20381;-75
2022/08/20 08:50:41;;;;;;;3.00;2.10;;;22.20;99.90;;;;;;5050352;28;20115;-75
2022/08/20 08:53:14;;;;;;;2.95;2.20;;;22.20;99.90;;;;;;5046971;28;20078;-75
2022/08/20 08:55:40;;;;;;;3.13;2.30;;;22.20;99.90;;;;;;5049049;28;20033;-75
2022/08/20 08:58:06;;;;;;;5.03;2.42;;;22.30;99.90;;;;;;5049013;28;20044;-74
2022/08/20 09:00:33;;;;;;;3.30;2.00;;;22.70;99.90;;;;;;5050420;28;20037;-74
2022/08/20 09:03:07;;;;;;;3.28;2.03;;;23.10;99.90;;;;;;5036191;28;20033;-73
2022/08/20 09:05:49;;;;;;;2.97;1.90;;;23.40;99.90;;;;;;5029196;28;20071;-74
2022/08/20 09:08:23;;;;;;;3.42;2.33;;;23.80;99.90;;;;;;5030137;28;20029;-74
2022/08/20 09:10:48;;;;;;;3.78;2.22;;;23.80;99.90;;;;;;5028910;28;20063;-75
2022/08/20 09:13:14;;;;;;;3.70;2.50;;;23.60;99.90;;;;;;5042151;28;20029;-75
2022/08/20 09:15:40;;;;;;;3.10;2.03;;;23.40;99.90;;;;;;5050403;28;20460;-75
2022/08/20 09:18:05;;;;;;;3.70;2.20;;;23.30;99.90;;;;;;5037539;28;20398;-75
2022/08/20 09:20:31;;;;;;;2.60;2.00;;;23.10;99.90;;;;;;5030128;28;20072;-75
2022/08/20 09:22:57;;;;;;;2.90;2.10;;;23.00;99.90;;;;;;5044428;28;20277;-75
2022/08/20 09:25:23;;;;;;;3.23;2.23;;;22.90;99.90;;;;;;5049177;28;20037;-75
2022/08/20 09:27:49;;;;;;;3.05;2.05;;;22.80;99.90;;;;;;5049271;28;20075;-74
2022/08/20 09:30:15;;;;;;;4.73;2.20;;;22.80;99.90;;;;;;5045286;28;20068;-74
2022/08/20 09:32:41;;;;;;;3.17;2.20;;;22.90;99.90;;;;;;5036363;28;20082;-75
2022/08/20 09:35:07;;;;;;;2.95;2.00;;;22.90;99.90;;;;;;5048344;28;20041;-75
2022/08/20 09:37:33;;;;;;;4.53;2.30;;;23.10;99.90;;;;;;5049791;28;20029;-75
2022/08/20 09:39:59;;;;;;;3.08;2.15;;;23.20;99.90;;;;;;5049498;28;20408;-75
2022/08/20 09:42:29;;;;;;;4.82;2.25;;;23.10;99.90;;;;;;5034568;28;20495;-75
2022/08/20 09:44:55;;;;;;;3.95;2.40;;;23.10;99.90;;;;;;5028398;28;20273;-75
2022/08/20 09:47:20;;;;;;;4.15;2.30;;;23.10;99.90;;;;;;5029316;28;20038;-75
2022/08/20 09:49:47;;;;;;;3.05;2.03;;;23.20;99.90;;;;;;5030908;28;20037;-75
2022/08/20 09:52:35;;;;;;;3.25;1.85;;;23.10;99.90;;;;;;5030010;28;20029;-75
2022/08/20 09:55:21;;;;;;;3.30;2.25;;;23.20;99.90;;;;;;5028253;28;20172;-75
2022/08/20 09:57:48;;;;;;;3.92;2.10;;;23.20;99.90;;;;;;5045474;28;20555;-75
2022/08/20 10:00:15;;;;;;;3.53;2.38;;;23.10;99.90;;;;;;5048138;28;20476;-74
2022/08/20 10:02:42;;;;;;;3.70;2.38;;;23.00;99.90;;;;;;5044850;28;20634;-75
2022/08/20 10:05:08;;;;;;;2.90;1.92;;;23.00;99.90;;;;;;5029784;28;20133;-75
2022/08/20 10:07:36;;;;;;;3.13;2.10;;;22.90;99.90;;;;;;5029849;28;20520;-74
2022/08/20 10:10:02;;;;;;;3.10;2.20;;;22.90;99.90;;;;;;5028603;28;20412;-75
2022/08/20 10:12:28;;;;;;;3.10;2.20;;;22.90;99.90;;;;;;5040743;28;20040;-74
2022/08/20 10:14:54;;;;;;;3.07;2.10;;;23.00;99.90;;;;;;5049834;28;20033;-75
2022/08/20 10:17:20;;;;;;;2.78;1.90;;;23.10;99.90;;;;;;5049739;28;20021;-75
2022/08/20 10:19:45;;;;;;;4.37;2.33;;;23.10;99.90;;;;;;5047398;28;20480;-75
2022/08/20 10:22:11;;;;;;;3.33;1.87;;;23.10;99.90;;;;;;5050539;28;20108;-75
2022/08/20 10:24:36;;;;;;;3.90;2.57;;;22.90;99.90;;;;;;5053184;28;20037;-74
2022/08/20 10:27:02;;;;;;;4.27;2.50;;;22.80;99.90;;;;;;5047626;28;20520;-75
2022/08/20 10:29:29;;;;;;;3.63;2.97;;;22.80;99.90;;;;;;5031796;28;20030;-75
2022/08/20 10:31:58;;;;;;;3.75;2.20;;;22.80;99.90;;;;;;5033070;28;20061;-75
2022/08/20 10:34:24;;;;;;;3.78;2.30;;;22.70;99.90;;;;;;5033798;28;20436;-75
2022/08/20 10:36:50;;;;;;;4.20;2.60;;;22.70;99.90;;;;;;5033428;28;20033;-74
2022/08/20 10:39:16;;;;;;;4.18;2.50;;;22.70;99.90;;;;;;5015088;28;20029;-74
2022/08/20 10:41:41;;;;;;;3.97;2.50;;;22.60;99.90;;;;;;5032296;28;20053;-76
2022/08/20 10:44:07;;;;;;;2.77;1.87;;;22.50;99.90;;;;;;5053422;28;20091;-75
2022/08/20 10:46:33;;;;;;;3.53;2.00;;;22.40;99.90;;;;;;5051785;28;20463;-75
2022/08/20 10:48:59;;;;;;;3.80;2.40;;;22.40;99.90;;;;;;5050995;28;20036;-75
2022/08/20 10:51:25;;;;;;;2.97;2.40;;;22.30;99.90;;;;;;5051447;28;20036;-75
2022/08/20 10:53:50;;;;;;;3.60;2.30;;;22.20;99.90;;;;;;5051045;28;20033;-75
2022/08/20 10:56:16;;;;;;;4.00;2.07;;;22.10;99.90;;;;;;5051241;28;20469;-75
2022/08/20 10:58:42;;;;;;;2.93;1.97;;;22.10;99.90;;;;;;5031194;28;20365;-75
2022/08/20 11:01:08;;;;;;;3.90;2.10;;;22.10;99.90;;;;;;5032792;28;20053;-74
2022/08/20 11:03:34;;;;;;;4.43;2.40;;;22.20;99.90;;;;;;5034187;28;20060;-75
2022/08/20 11:06:00;;;;;;;3.85;2.28;;;22.20;99.90;;;;;;5052333;28;20045;-76
2022/08/20 11:08:25;;;;;;;2.42;1.70;;;22.40;99.90;;;;;;5030811;28;20124;-76
2022/08/20 11:10:51;;;;;;;3.77;2.37;;;22.40;99.90;;;;;;5030928;28;20560;-75
2022/08/20 11:13:17;;;;;;;3.28;2.20;;;22.40;99.90;;;;;;5047317;28;20026;-75
2022/08/20 11:15:43;;;;;;;3.67;2.10;;;22.50;99.90;;;;;;5032158;28;20041;-75
2022/08/20 11:18:09;;;;;;;3.35;2.30;;;22.60;99.90;;;;;;5047031;28;20117;-74
2022/08/20 11:20:36;;;;;;;3.50;2.30;;;22.70;99.90;;;;;;5048071;28;20535;-75
2022/08/20 11:23:02;;;;;;;3.05;2.28;;;22.90;99.90;;;;;;5051995;28;20468;-74
2022/08/20 11:25:27;;;;;;;4.32;2.83;;;23.00;99.90;;;;;;5050519;28;20437;-75
2022/08/20 11:27:54;;;;;;;4.23;2.80;;;23.00;99.90;;;;;;5036053;28;20040;-75
2022/08/20 11:30:24;;;;;;;4.15;2.55;;;23.00;99.90;;;;;;5030596;28;20297;-75
2022/08/20 11:32:50;;;;;;;5.55;2.72;;;23.10;99.90;;;;;;5028888;28;20037;-75
2022/08/20 11:35:17;;;;;;;6.53;2.70;;;23.50;99.90;;;;;;5032383;28;20041;-74
2022/08/20 11:37:43;;;;;;;3.78;2.65;;;23.80;99.90;;;;;;5034031;28;20459;-74
2022/08/20 11:40:10;;;;;;;4.80;3.15;;;24.00;99.90;;;;;;5051569;28;20307;-74
2022/08/20 11:42:37;;;;;;;5.00;2.63;;;24.20;99.90;;;;;;5048478;28;20057;-75
2022/08/20 11:45:04;;;;;;;4.60;2.70;;;24.30;99.90;;;;;;5051397;28;20385;-75
2022/08/20 11:47:32;;;;;;;3.20;2.30;;;24.20;99.90;;;;;;5051369;28;20037;-75
2022/08/20 11:50:02;;;;;;;3.65;2.33;;;24.10;99.90;;;;;;5032108;28;20032;-74
2022/08/20 11:52:29;;;;;;;5.10;2.75;;;23.90;99.90;;;;;;5030053;28;20026;-76
2022/08/20 11:54:55;;;;;;;5.13;2.80;;;23.90;99.90;;;;;;5031585;28;20075;-75
2022/08/20 11:57:23;;;;;;;6.43;3.08;;;23.80;99.90;;;;;;5018133;28;20124;-74
2022/08/20 11:59:54;;;;;;;3.95;2.60;;;23.80;99.90;;;;;;5030596;28;20017;-75
2022/08/20 12:02:19;;;;;;;5.50;3.00;;;23.70;99.90;;;;;;5031119;28;20511;-75
2022/08/20 12:04:45;;;;;;;3.37;2.57;;;23.70;99.90;;;;;;5029954;28;20025;-73
2022/08/20 12:07:13;;;;;;;4.13;2.75;;;23.60;99.90;;;;;;5029915;28;20029;-74
2022/08/20 12:09:40;;;;;;;4.32;2.75;;;23.50;99.90;;;;;;5029931;28;20033;-75
2022/08/20 12:12:07;;;;;;;5.28;3.03;;;23.40;99.90;;;;;;5033338;28;20032;-75
2022/08/20 12:14:33;;;;;;;4.30;2.97;;;23.30;99.90;;;;;;5051074;28;20102;-74
2022/08/20 12:17:18;;;;;;;4.50;3.00;;;23.20;99.90;;;;;;5051354;28;20075;-75
2022/08/20 12:19:44;;;;;;;4.70;2.72;;;23.20;99.90;;;;;;5047706;28;20300;-76
2022/08/20 12:22:11;;;;;;;5.47;2.75;;;23.10;99.90;;;;;;5033768;28;20053;-75
2022/08/20 12:24:36;;;;;;;4.15;2.80;;;23.10;99.90;;;;;;5031201;28;20068;-74
2022/08/20 12:27:09;;;;;;;4.30;3.20;;;23.00;99.90;;;;;;5032249;28;20507;-75
2022/08/20 12:29:37;;;;;;;3.97;2.97;;;23.00;99.90;;;;;;5049373;28;20945;-75
2022/08/20 12:32:05;;;;;;;4.18;3.00;;;23.00;99.90;;;;;;5050562;28;20028;-75
2022/08/20 12:34:35;;;;;;;4.15;3.05;;;22.90;99.90;;;;;;5045904;28;20032;-75
2022/08/20 12:37:09;;;;;;;4.95;3.20;;;22.90;99.90;;;;;;5027369;28;20033;-74
2022/08/20 12:39:37;;;;;;;4.38;3.10;;;22.90;99.90;;;;;;5030597;28;20053;-75
2022/08/20 12:42:03;;;;;;;5.85;4.00;;;22.90;99.90;;;;;;5029552;28;20354;-74
2022/08/20 12:44:30;;;;;;;4.13;2.95;;;22.90;99.90;;;;;;5029911;28;20432;-75
2022/08/20 12:47:26;;;;;;;5.50;2.92;;;22.80;99.90;;;;;;5030697;28;20041;-74
2022/08/20 12:49:56;;;;;;;3.72;2.63;;;22.90;99.90;;;;;;5029681;28;20045;-74
2022/08/20 12:52:24;;;;;;;5.00;3.08;;;22.80;99.90;;;;;;5029168;28;20030;-75
2022/08/20 12:54:50;;;;;;;6.18;3.20;;;22.90;99.90;;;;;;5045206;28;20033;-75
2022/08/20 12:57:32;;;;;;;4.10;2.90;;;22.80;99.90;;;;;;5050569;28;20040;-74
2022/08/20 13:00:00;;;;;;;4.20;3.08;;;22.80;99.90;;;;;;5048865;28;20028;-75